createdAt,value
2017-09-13T00:01:15.086Z,3.47
2017-09-13T00:03:42.611Z,2.60
2017-09-13T00:06:10.147Z,3.20
2017-09-13T00:08:37.699Z,3.10
2017-09-13T00:11:06.019Z,2.80
2017-09-13T00:13:33.554Z,2.53
2017-09-13T00:16:01.134Z,3.50
2017-09-13T00:18:28.691Z,2.37
2017-09-13T00:20:56.224Z,3.73
2017-09-13T00:23:23.784Z,2.70
2017-09-13T00:25:51.312Z,3.70
2017-09-13T00:28:19.615Z,3.60
2017-09-13T00:30:47.150Z,2.73
2017-09-13T00:33:15.438Z,3.23
2017-09-13T00:35:42.981Z,3.03
2017-09-13T00:38:11.281Z,3.17
2017-09-13T00:40:39.254Z,3.57
2017-09-13T00:43:06.775Z,4.40
2017-09-13T00:45:34.302Z,3.73
2017-09-13T00:48:01.856Z,3.23
2017-09-13T00:50:29.375Z,3.50
2017-09-13T00:52:56.920Z,3.03
2017-09-13T00:55:24.433Z,3.87
2017-09-13T00:57:51.974Z,2.43
2017-09-13T01:00:19.483Z,3.70
2017-09-13T01:02:47.028Z,4.10
2017-09-13T01:05:14.566Z,4.03
2017-09-13T01:07:42.102Z,3.33
2017-09-13T01:10:09.661Z,3.10
2017-09-13T01:12:37.193Z,3.10
2017-09-13T01:15:05.016Z,2.60
2017-09-13T01:17:32.551Z,3.30
2017-09-13T01:20:00.073Z,2.90
2017-09-13T01:22:28.376Z,3.37
2017-09-13T01:24:55.912Z,2.00
2017-09-13T01:27:23.512Z,2.00
2017-09-13T01:29:51.048Z,2.80
2017-09-13T01:32:18.906Z,3.30
2017-09-13T01:34:46.457Z,2.73
2017-09-13T01:37:13.982Z,2.90
2017-09-13T01:39:41.518Z,3.10
2017-09-13T01:42:09.056Z,3.17
2017-09-13T01:44:36.616Z,2.70
2017-09-13T01:47:04.167Z,2.17
2017-09-13T01:49:31.711Z,3.13
2017-09-13T01:51:59.249Z,2.83
2017-09-13T01:54:27.563Z,2.23
2017-09-13T01:56:55.116Z,2.30
2017-09-13T01:59:22.651Z,2.50
2017-09-13T02:01:50.961Z,2.20
2017-09-13T02:04:18.512Z,3.00
2017-09-13T02:06:46.025Z,2.30
2017-09-13T02:09:13.565Z,2.83
2017-09-13T02:11:41.088Z,2.87
2017-09-13T02:14:08.618Z,2.73
2017-09-13T02:16:36.135Z,2.40
2017-09-13T02:19:03.677Z,2.10
2017-09-13T02:21:31.276Z,2.83
2017-09-13T02:23:58.840Z,2.63
2017-09-13T02:26:26.375Z,2.53
2017-09-13T02:28:53.908Z,2.90
2017-09-13T02:31:21.464Z,2.43
2017-09-13T02:33:48.988Z,2.40
2017-09-13T02:36:17.314Z,2.80
2017-09-13T02:38:44.884Z,2.20
2017-09-13T02:41:12.422Z,2.63
2017-09-13T02:43:39.976Z,2.73
2017-09-13T02:46:07.552Z,1.93
2017-09-13T02:48:35.091Z,1.57
2017-09-13T02:51:02.661Z,2.80
2017-09-13T02:53:30.219Z,2.33
2017-09-13T02:55:57.792Z,2.13
2017-09-13T02:58:25.329Z,2.10
2017-09-13T03:00:53.623Z,2.57
2017-09-13T03:03:21.174Z,2.50
2017-09-13T03:05:49.084Z,2.37
2017-09-13T03:08:16.647Z,2.30
2017-09-13T03:10:44.179Z,1.90
2017-09-13T03:13:11.727Z,2.20
2017-09-13T03:15:39.265Z,1.60
2017-09-13T03:18:06.835Z,1.57
2017-09-13T03:20:34.384Z,2.37
2017-09-13T03:23:02.232Z,1.83
2017-09-13T03:25:30.529Z,2.40
2017-09-13T03:27:58.066Z,1.67
2017-09-13T03:30:25.605Z,2.17
2017-09-13T03:32:53.130Z,2.00
2017-09-13T03:35:20.658Z,2.07
2017-09-13T03:37:48.180Z,2.13
2017-09-13T03:40:15.798Z,1.83
2017-09-13T03:42:44.083Z,1.80
2017-09-13T03:45:11.617Z,2.07
2017-09-13T03:47:39.167Z,2.17
2017-09-13T03:50:06.697Z,2.03
2017-09-13T03:52:34.260Z,2.27
2017-09-13T03:55:01.793Z,2.20
2017-09-13T03:57:29.771Z,2.50
2017-09-13T03:59:57.304Z,2.57
2017-09-13T04:02:24.838Z,2.90
2017-09-13T04:04:52.390Z,2.17
2017-09-13T04:07:19.902Z,1.77
2017-09-13T04:09:47.431Z,1.80
2017-09-13T04:12:14.985Z,2.47
2017-09-13T04:14:42.913Z,2.43
2017-09-13T04:17:11.229Z,2.17
2017-09-13T04:19:39.551Z,2.40
2017-09-13T04:22:07.111Z,2.00
2017-09-13T04:24:34.655Z,2.10
2017-09-13T04:27:02.198Z,1.67
2017-09-13T04:29:30.110Z,1.57
2017-09-13T04:31:58.413Z,2.53
2017-09-13T04:34:25.951Z,2.20
2017-09-13T04:36:53.505Z,3.60
2017-09-13T04:39:21.807Z,2.13
2017-09-13T04:41:49.366Z,1.87
2017-09-13T04:44:17.259Z,2.30
2017-09-13T04:46:44.775Z,1.70
2017-09-13T04:49:13.060Z,2.37
2017-09-13T04:51:40.628Z,1.90
2017-09-13T04:54:08.170Z,1.80
2017-09-13T04:56:35.730Z,1.60
2017-09-13T04:59:03.275Z,2.80
2017-09-13T05:01:31.594Z,1.60
2017-09-13T05:03:59.129Z,1.60
2017-09-13T05:06:26.654Z,1.70
2017-09-13T05:08:54.183Z,1.50
2017-09-13T05:11:21.699Z,1.60
2017-09-13T05:13:50.020Z,1.60
2017-09-13T05:16:17.585Z,1.93
2017-09-13T05:18:45.106Z,1.10
2017-09-13T05:21:12.668Z,1.33
2017-09-13T05:23:40.932Z,1.40
2017-09-13T05:26:08.470Z,1.30
2017-09-13T05:28:36.827Z,1.13
2017-09-13T05:31:04.350Z,1.20
2017-09-13T05:33:31.891Z,1.23
2017-09-13T05:35:59.419Z,1.00
2017-09-13T05:38:26.959Z,0.93
2017-09-13T05:40:54.520Z,1.00
2017-09-13T05:43:22.063Z,0.90
2017-09-13T05:45:50.554Z,1.20
2017-09-13T05:48:18.115Z,1.57
2017-09-13T05:50:45.659Z,1.00
2017-09-13T05:53:13.220Z,1.10
2017-09-13T05:55:40.828Z,1.20
2017-09-13T05:58:08.386Z,1.10
2017-09-13T06:00:35.966Z,1.00
2017-09-13T06:03:04.128Z,0.90
2017-09-13T06:05:32.406Z,0.90
2017-09-13T06:08:00.845Z,1.33
2017-09-13T06:10:28.371Z,0.80
2017-09-13T06:12:55.912Z,0.83
2017-09-13T06:15:23.463Z,0.90
2017-09-13T06:17:51.019Z,0.70
2017-09-13T06:20:19.334Z,0.90
2017-09-13T06:22:47.617Z,0.90
2017-09-13T06:25:15.184Z,0.80
2017-09-13T06:27:42.720Z,0.90
2017-09-13T06:30:10.272Z,1.00
2017-09-13T06:32:37.821Z,0.87
2017-09-13T06:35:05.349Z,0.87
2017-09-13T06:37:32.893Z,0.70
2017-09-13T06:40:00.441Z,0.90
2017-09-13T06:42:27.974Z,0.80
2017-09-13T06:44:55.530Z,0.90
2017-09-13T06:47:23.123Z,0.90
2017-09-13T06:49:50.700Z,1.40
2017-09-13T06:52:18.215Z,0.70
2017-09-13T06:54:45.761Z,0.70
2017-09-13T06:57:14.056Z,0.87
2017-09-13T06:59:42.075Z,0.80
2017-09-13T07:02:10.388Z,0.80
2017-09-13T07:04:37.913Z,0.70
2017-09-13T07:07:05.486Z,0.60
2017-09-13T07:09:33.021Z,0.70
2017-09-13T07:12:01.365Z,0.60
2017-09-13T07:14:28.935Z,0.70
2017-09-13T07:16:56.480Z,0.60
2017-09-13T07:19:24.008Z,0.70
2017-09-13T07:21:52.001Z,0.70
2017-09-13T07:24:19.570Z,0.90
2017-09-13T07:26:47.087Z,0.70
2017-09-13T07:29:14.625Z,0.70
2017-09-13T07:31:42.167Z,0.60
2017-09-13T07:34:10.015Z,0.60
2017-09-13T07:36:37.557Z,0.70
2017-09-13T07:39:05.111Z,0.73
2017-09-13T07:41:32.645Z,0.70
2017-09-13T07:44:00.196Z,0.60
2017-09-13T07:46:27.789Z,0.60
2017-09-13T07:48:55.359Z,0.73
2017-09-13T07:51:23.194Z,0.87
2017-09-13T07:53:51.513Z,0.60
2017-09-13T07:56:19.048Z,0.60
2017-09-13T07:58:46.590Z,0.70
2017-09-13T08:01:14.118Z,0.70
2017-09-13T08:03:41.699Z,0.70
2017-09-13T08:06:09.252Z,0.60
2017-09-13T08:08:37.178Z,0.70
2017-09-13T08:11:04.693Z,0.60
2017-09-13T08:13:32.219Z,0.63
2017-09-13T08:16:00.938Z,0.67
2017-09-13T08:18:28.466Z,0.70
2017-09-13T08:20:55.995Z,0.63
2017-09-13T08:23:23.510Z,0.77
2017-09-13T08:25:51.314Z,0.70
2017-09-13T08:28:18.837Z,0.67
2017-09-13T08:30:46.384Z,0.60
2017-09-13T08:33:13.980Z,0.80
2017-09-13T08:35:41.540Z,0.80
2017-09-13T08:38:09.095Z,0.60
2017-09-13T08:40:36.635Z,0.70
2017-09-13T08:43:04.180Z,0.57
2017-09-13T08:45:31.719Z,0.80
2017-09-13T08:47:59.253Z,0.80
2017-09-13T08:50:26.805Z,0.80
2017-09-13T08:52:54.349Z,0.70
2017-09-13T08:55:21.906Z,0.60
2017-09-13T08:57:49.441Z,0.67
2017-09-13T09:00:17.009Z,0.70
2017-09-13T09:02:44.569Z,0.70
2017-09-13T09:05:12.120Z,0.80
2017-09-13T09:07:39.690Z,0.83
2017-09-13T09:10:07.459Z,0.70
2017-09-13T09:12:35.045Z,0.73
2017-09-13T09:15:02.602Z,0.80
2017-09-13T09:17:30.492Z,0.70
2017-09-13T09:19:58.104Z,0.70
2017-09-13T09:22:25.639Z,0.60
2017-09-13T09:24:53.945Z,0.70
2017-09-13T09:27:21.487Z,0.70
2017-09-13T09:29:49.031Z,0.80
2017-09-13T09:32:16.602Z,0.67
2017-09-13T09:34:44.152Z,0.80
2017-09-13T09:37:11.704Z,1.07
2017-09-13T09:39:39.250Z,0.70
2017-09-13T09:42:06.795Z,0.70
2017-09-13T09:44:34.311Z,0.77
2017-09-13T09:47:01.871Z,0.80
2017-09-13T09:49:29.409Z,0.73
2017-09-13T09:51:56.973Z,0.80
2017-09-13T09:54:24.518Z,0.80
2017-09-13T09:56:52.856Z,0.70
2017-09-13T09:59:20.400Z,0.90
2017-09-13T10:01:47.965Z,0.90
2017-09-13T10:04:16.117Z,0.87
2017-09-13T10:06:43.658Z,0.80
2017-09-13T10:09:11.983Z,0.90
2017-09-13T10:11:39.528Z,0.90
2017-09-13T10:14:07.511Z,0.97
2017-09-13T10:16:35.061Z,1.10
2017-09-13T10:19:02.618Z,1.07
2017-09-13T10:21:30.186Z,1.00
2017-09-13T10:23:57.724Z,0.80
2017-09-13T10:26:25.278Z,0.70
2017-09-13T10:28:53.587Z,0.90
2017-09-13T10:31:21.148Z,1.50
2017-09-13T10:33:48.689Z,1.43
2017-09-13T10:36:17.024Z,1.07
2017-09-13T10:38:44.585Z,1.70
2017-09-13T10:41:12.123Z,1.63
2017-09-13T10:43:39.744Z,2.03
2017-09-13T10:46:07.263Z,1.27
2017-09-13T10:48:35.560Z,1.40
2017-09-13T10:51:03.085Z,1.10
2017-09-13T10:53:31.423Z,1.33
2017-09-13T10:55:58.953Z,1.60
2017-09-13T10:58:26.509Z,1.37
2017-09-13T11:00:54.111Z,1.50
2017-09-13T11:03:21.640Z,1.80
2017-09-13T11:05:49.201Z,1.67
2017-09-13T11:08:16.739Z,1.90
2017-09-13T11:10:44.287Z,2.03
2017-09-13T11:13:12.605Z,2.10
2017-09-13T11:15:40.121Z,2.00
2017-09-13T11:18:07.669Z,1.40
2017-09-13T11:20:35.214Z,1.97
2017-09-13T11:23:02.742Z,1.77
2017-09-13T11:25:30.291Z,1.90
2017-09-13T11:27:57.831Z,1.93
2017-09-13T11:30:25.378Z,2.03
2017-09-13T11:32:52.924Z,2.27
2017-09-13T11:35:21.230Z,1.77
2017-09-13T11:37:48.758Z,2.50
2017-09-13T11:40:16.328Z,2.93
2017-09-13T11:42:44.664Z,2.00
2017-09-13T11:45:12.224Z,2.50
2017-09-13T11:47:39.783Z,1.67
2017-09-13T11:50:07.341Z,2.13
2017-09-13T11:52:34.903Z,1.97
2017-09-13T11:55:02.691Z,1.50
2017-09-13T11:57:31.025Z,1.80
2017-09-13T11:59:58.589Z,2.30
2017-09-13T12:02:26.108Z,1.67
2017-09-13T12:04:54.756Z,1.57
2017-09-13T12:07:22.285Z,2.10
2017-09-13T12:09:49.826Z,2.20
2017-09-13T12:12:17.403Z,1.73
2017-09-13T12:14:44.953Z,2.33
2017-09-13T12:17:13.289Z,2.47
2017-09-13T12:19:41.054Z,2.07
2017-09-13T12:22:08.897Z,2.00
2017-09-13T12:24:36.409Z,1.50
2017-09-13T12:27:03.944Z,2.20
2017-09-13T12:29:31.498Z,1.57
2017-09-13T12:31:59.106Z,1.70
2017-09-13T12:34:26.642Z,1.87
2017-09-13T12:36:54.282Z,1.70
2017-09-13T12:39:22.374Z,2.33
2017-09-13T12:41:49.918Z,2.13
2017-09-13T12:44:18.240Z,1.87
2017-09-13T12:46:45.795Z,2.10
2017-09-13T12:49:13.419Z,2.00
2017-09-13T12:51:41.761Z,2.00
2017-09-13T12:54:09.318Z,2.13
2017-09-13T12:56:37.317Z,1.63
2017-09-13T12:59:06.884Z,1.40
2017-09-13T13:01:34.440Z,2.20
2017-09-13T13:04:01.995Z,2.10
2017-09-13T13:06:29.514Z,2.17
2017-09-13T13:08:57.826Z,1.97
2017-09-13T13:11:25.375Z,2.03
2017-09-13T13:13:52.925Z,3.20
2017-09-13T13:16:20.491Z,2.63
2017-09-13T13:18:48.050Z,2.10
2017-09-13T13:21:15.879Z,2.47
2017-09-13T13:23:44.214Z,2.53
2017-09-13T13:26:11.768Z,2.37
2017-09-13T13:28:39.328Z,1.97
2017-09-13T13:31:06.944Z,2.43
2017-09-13T13:33:34.533Z,1.67
2017-09-13T13:36:02.070Z,1.67
2017-09-13T13:38:29.916Z,2.10
2017-09-13T13:40:57.490Z,2.30
2017-09-13T13:43:25.037Z,3.50
2017-09-13T13:45:52.633Z,2.13
2017-09-13T13:48:20.177Z,2.03
2017-09-13T13:50:47.728Z,2.00
2017-09-13T13:53:15.293Z,2.47
2017-09-13T13:55:42.872Z,1.50
2017-09-13T13:58:10.445Z,2.03
2017-09-13T14:00:37.978Z,2.27
2017-09-13T14:03:05.550Z,1.60
2017-09-13T14:05:33.105Z,1.80
2017-09-13T14:08:00.643Z,2.67
2017-09-13T14:10:28.939Z,1.53
2017-09-13T14:12:56.836Z,2.07
2017-09-13T14:15:24.367Z,2.00
2017-09-13T14:17:51.941Z,1.83
2017-09-13T14:20:19.530Z,1.80
2017-09-13T14:22:47.078Z,1.77
2017-09-13T14:25:14.638Z,1.70
2017-09-13T14:27:42.154Z,2.57
2017-09-13T14:30:09.702Z,2.30
2017-09-13T14:32:37.227Z,2.90
2017-09-13T14:35:04.797Z,2.07
2017-09-13T14:37:33.129Z,1.90
2017-09-13T14:40:00.654Z,1.90
2017-09-13T14:42:28.205Z,2.50
2017-09-13T14:44:55.759Z,2.27
2017-09-13T14:47:24.421Z,2.00
2017-09-13T14:49:51.978Z,2.50
2017-09-13T14:52:19.513Z,2.47
2017-09-13T14:54:47.048Z,2.43
2017-09-13T14:57:14.572Z,1.73
2017-09-13T14:59:42.883Z,2.63
2017-09-13T15:02:10.440Z,3.17
2017-09-13T15:04:38.340Z,1.63
2017-09-13T15:07:05.868Z,3.17
2017-09-13T15:09:33.435Z,2.50
2017-09-13T15:12:00.986Z,2.67
2017-09-13T15:14:28.508Z,1.90
2017-09-13T15:16:56.036Z,2.70
2017-09-13T15:19:23.595Z,1.97
2017-09-13T15:21:51.424Z,1.70
2017-09-13T15:24:18.981Z,2.47
2017-09-13T15:26:46.516Z,2.77
2017-09-13T15:29:14.048Z,2.27
2017-09-13T15:31:41.600Z,1.90
2017-09-13T15:34:09.460Z,2.33
2017-09-13T15:36:37.631Z,3.07
2017-09-13T15:39:05.208Z,2.20
2017-09-13T15:41:32.750Z,2.03
2017-09-13T15:44:00.275Z,3.03
2017-09-13T15:46:27.815Z,2.60
2017-09-13T15:48:55.347Z,1.20
2017-09-13T15:51:23.179Z,1.80
2017-09-13T15:53:51.001Z,1.63
2017-09-13T15:56:18.528Z,2.20
2017-09-13T15:58:46.066Z,2.23
2017-09-13T16:01:13.580Z,3.43
2017-09-13T16:03:41.884Z,2.70
2017-09-13T16:06:09.418Z,1.73
2017-09-13T16:08:36.955Z,1.60
2017-09-13T16:11:04.470Z,2.57
2017-09-13T16:13:32.017Z,2.50
2017-09-13T16:15:59.548Z,2.80
2017-09-13T16:18:27.105Z,2.60
2017-09-13T16:20:54.687Z,2.13
2017-09-13T16:23:22.204Z,2.67
2017-09-13T16:25:49.716Z,2.97
2017-09-13T16:28:17.272Z,3.13
2017-09-13T16:30:44.810Z,1.93
2017-09-13T16:33:12.360Z,3.10
2017-09-13T16:35:40.640Z,2.90
2017-09-13T16:38:08.154Z,2.30
2017-09-13T16:40:35.732Z,2.80
2017-09-13T16:43:03.271Z,4.50
2017-09-13T16:45:30.787Z,2.87
2017-09-13T16:47:58.357Z,3.03
2017-09-13T16:50:25.884Z,3.70
2017-09-13T16:52:53.411Z,2.47
2017-09-13T16:55:20.930Z,2.40
2017-09-13T16:57:48.476Z,2.93
2017-09-13T17:00:16.021Z,5.20
2017-09-13T17:02:43.560Z,4.17
2017-09-13T17:05:11.545Z,3.90
2017-09-13T17:07:39.097Z,4.57
2017-09-13T17:10:06.621Z,3.57
2017-09-13T17:12:34.150Z,3.23
2017-09-13T17:15:01.793Z,5.77
2017-09-13T17:17:30.097Z,4.67
2017-09-13T17:19:57.647Z,3.60
2017-09-13T17:22:25.176Z,2.40
2017-09-13T17:24:53.495Z,3.00
2017-09-13T17:27:21.031Z,3.67
2017-09-13T17:29:49.317Z,3.60
2017-09-13T17:32:16.868Z,2.87
2017-09-13T17:34:45.161Z,4.00
2017-09-13T17:37:12.702Z,3.73
2017-09-13T17:39:40.233Z,4.13
2017-09-13T17:42:08.060Z,3.23
2017-09-13T17:44:35.582Z,3.50
2017-09-13T17:47:04.591Z,3.67
2017-09-13T17:49:32.134Z,3.73
2017-09-13T17:52:00.420Z,2.90
2017-09-13T17:54:27.954Z,3.13
2017-09-13T17:56:56.246Z,3.30
2017-09-13T17:59:24.532Z,3.30
2017-09-13T18:01:52.181Z,3.37
2017-09-13T18:04:19.790Z,2.43
2017-09-13T18:06:47.341Z,3.10
2017-09-13T18:09:14.889Z,3.07
2017-09-13T18:11:42.452Z,2.80
2017-09-13T18:14:10.020Z,3.00
2017-09-13T18:16:37.546Z,5.23
2017-09-13T18:19:05.831Z,8.73
2017-09-13T18:21:33.375Z,4.20
2017-09-13T18:24:01.658Z,3.80
2017-09-13T18:26:29.225Z,2.57
2017-09-13T18:28:56.751Z,3.40
2017-09-13T18:31:25.074Z,2.83
2017-09-13T18:33:52.602Z,2.60
2017-09-13T18:36:20.140Z,3.37
2017-09-13T18:38:47.675Z,3.90
2017-09-13T18:41:15.212Z,2.23
2017-09-13T18:43:42.753Z,3.90
2017-09-13T18:46:10.280Z,2.70
2017-09-13T18:48:37.825Z,2.67
2017-09-13T18:51:05.362Z,2.77
2017-09-13T18:53:32.914Z,2.73
2017-09-13T18:56:00.757Z,3.90
2017-09-13T18:58:28.280Z,4.33
2017-09-13T19:00:55.810Z,3.70
2017-09-13T19:03:23.366Z,3.37
2017-09-13T19:05:50.935Z,3.20
2017-09-13T19:08:18.481Z,4.13
2017-09-13T19:10:46.011Z,3.80
2017-09-13T19:13:13.870Z,3.60
2017-09-13T19:15:42.562Z,3.37
2017-09-13T19:18:10.085Z,3.47
2017-09-13T19:20:37.656Z,3.13
2017-09-13T19:23:06.937Z,2.87
2017-09-13T19:25:34.795Z,2.87
2017-09-13T19:28:02.333Z,2.30
2017-09-13T19:30:30.167Z,2.63
2017-09-13T19:32:57.710Z,3.10
2017-09-13T19:35:26.047Z,2.87
2017-09-13T19:37:53.614Z,2.87
2017-09-13T19:40:21.178Z,3.60
2017-09-13T19:42:48.778Z,3.17
2017-09-13T19:45:16.560Z,2.20
2017-09-13T19:47:44.102Z,3.40
2017-09-13T19:50:11.652Z,3.40
2017-09-13T19:52:39.954Z,2.87
2017-09-13T19:55:07.506Z,3.00
2017-09-13T19:57:35.061Z,3.87
2017-09-13T20:00:02.615Z,2.97
2017-09-13T20:02:30.179Z,3.03
2017-09-13T20:04:57.712Z,2.70
2017-09-13T20:07:26.362Z,2.30
2017-09-13T20:09:53.919Z,2.60
2017-09-13T20:12:21.490Z,2.70
2017-09-13T20:14:49.047Z,2.03
2017-09-13T20:17:16.580Z,2.20
2017-09-13T20:19:44.143Z,2.00
2017-09-13T20:22:11.720Z,2.40
2017-09-13T20:24:39.262Z,1.80
2017-09-13T20:27:06.816Z,2.10
2017-09-13T20:29:34.342Z,1.40
2017-09-13T20:32:02.664Z,1.63
2017-09-13T20:34:30.236Z,2.30
2017-09-13T20:36:57.762Z,2.30
2017-09-13T20:39:25.351Z,1.63
2017-09-13T20:41:52.884Z,1.60
2017-09-13T20:44:20.426Z,1.73
2017-09-13T20:46:47.953Z,1.43
2017-09-13T20:49:15.499Z,1.67
2017-09-13T20:51:43.029Z,1.60
2017-09-13T20:54:11.805Z,1.33
2017-09-13T20:56:39.369Z,1.30
2017-09-13T20:59:06.912Z,1.30
2017-09-13T21:01:34.466Z,1.07
2017-09-13T21:04:01.999Z,1.30
2017-09-13T21:06:29.529Z,1.00
2017-09-13T21:08:57.080Z,1.00
2017-09-13T21:11:24.621Z,1.23
2017-09-13T21:13:52.145Z,1.60
2017-09-13T21:16:20.494Z,1.40
2017-09-13T21:18:48.015Z,1.37
2017-09-13T21:21:15.622Z,1.20
2017-09-13T21:23:43.255Z,1.23
2017-09-13T21:26:10.767Z,1.40
2017-09-13T21:28:38.353Z,1.90
2017-09-13T21:31:05.888Z,1.70
2017-09-13T21:33:33.439Z,1.40
2017-09-13T21:36:01.782Z,1.00
2017-09-13T21:38:29.312Z,1.40
2017-09-13T21:40:56.943Z,1.00
2017-09-13T21:43:24.508Z,1.20
2017-09-13T21:45:52.074Z,1.00
2017-09-13T21:48:19.672Z,1.20
2017-09-13T21:50:47.219Z,1.10
2017-09-13T21:53:14.759Z,1.27
2017-09-13T21:55:42.375Z,1.00
2017-09-13T21:58:09.931Z,1.10
2017-09-13T22:00:37.494Z,1.07
2017-09-13T22:03:05.089Z,0.90
2017-09-13T22:05:32.646Z,1.00
2017-09-13T22:08:00.204Z,1.00
2017-09-13T22:10:27.769Z,0.90
2017-09-13T22:12:55.290Z,0.93
2017-09-13T22:15:23.688Z,0.90
2017-09-13T22:17:51.978Z,1.10
2017-09-13T22:20:19.516Z,0.93
2017-09-13T22:22:47.811Z,0.80
2017-09-13T22:25:15.360Z,0.83
2017-09-13T22:27:43.694Z,1.00
2017-09-13T22:30:11.221Z,1.03
2017-09-13T22:32:38.756Z,0.67
2017-09-13T22:35:06.268Z,1.00
2017-09-13T22:37:33.799Z,0.80
2017-09-13T22:40:02.105Z,0.80
2017-09-13T22:42:30.073Z,0.93
2017-09-13T22:44:57.595Z,1.00
2017-09-13T22:47:25.117Z,0.73
2017-09-13T22:49:52.658Z,1.00
2017-09-13T22:52:20.194Z,0.73
2017-09-13T22:54:47.735Z,0.90
2017-09-13T22:57:15.256Z,1.10
2017-09-13T22:59:43.821Z,1.00
2017-09-13T23:02:11.364Z,1.10
2017-09-13T23:04:38.896Z,1.17
2017-09-13T23:07:06.449Z,1.00
2017-09-13T23:09:33.977Z,0.87
2017-09-13T23:12:02.268Z,1.00
2017-09-13T23:14:30.730Z,1.20
2017-09-13T23:16:59.057Z,0.80
2017-09-13T23:19:26.584Z,0.93
2017-09-13T23:21:54.135Z,1.07
2017-09-13T23:24:22.449Z,1.13
2017-09-13T23:26:49.980Z,0.97
2017-09-13T23:29:17.523Z,1.27
2017-09-13T23:31:45.799Z,1.00
2017-09-13T23:34:14.099Z,0.90
2017-09-13T23:36:41.626Z,0.93
2017-09-13T23:39:09.965Z,1.10
2017-09-13T23:41:37.502Z,1.00
2017-09-13T23:44:05.042Z,0.90
2017-09-13T23:46:32.581Z,0.83
2017-09-13T23:49:00.872Z,0.87
2017-09-13T23:51:29.168Z,1.40
2017-09-13T23:53:56.680Z,0.97
2017-09-13T23:56:24.218Z,0.70
2017-09-13T23:58:51.767Z,0.80
